sensor_id;sensor_type;location;lat;lon;timestamp;temperature;humidity
2409;DHT22;8463;48.094;7.970;2024-03-17T00:01:00;10.00;1.00
2409;DHT22;8463;48.094;7.970;2024-03-17T00:03:26;10.00;1.00
2409;DHT22;8463;48.094;7.970;2024-03-17T00:05:59;9.90;1.00
2409;DHT22;8463;48.094;7.970;2024-03-17T00:08:25;10.00;1.00
2409;DHT22;8463;48.094;7.970;2024-03-17T00:10:51;10.00;1.00
2409;DHT22;8463;48.094;7.970;2024-03-17T00:13:18;10.00;1.00
2409;DHT22;8463;48.094;7.970;2024-03-17T00:15:44;10.00;1.00
2409;DHT22;8463;48.094;7.970;2024-03-17T00:18:12;9.90;1.00
2409;DHT22;8463;48.094;7.970;2024-03-17T00:20:38;9.90;1.00
2409;DHT22;8463;48.094;7.970;2024-03-17T00:23:04;9.90;1.00
2409;DHT22;8463;48.094;7.970;2024-03-17T00:25:32;9.90;1.00
2409;DHT22;8463;48.094;7.970;2024-03-17T00:27:59;9.90;1.00
2409;DHT22;8463;48.094;7.970;2024-03-17T00:30:25;9.90;1.00
2409;DHT22;8463;48.094;7.970;2024-03-17T00:32:51;9.90;1.00
2409;DHT22;8463;48.094;7.970;2024-03-17T00:35:16;10.00;1.00
2409;DHT22;8463;48.094;7.970;2024-03-17T00:37:49;10.00;1.00
2409;DHT22;8463;48.094;7.970;2024-03-17T00:40:20;10.00;1.00
2409;DHT22;8463;48.094;7.970;2024-03-17T00:42:46;10.00;1.00
2409;DHT22;8463;48.094;7.970;2024-03-17T00:45:12;9.90;1.00
2409;DHT22;8463;48.094;7.970;2024-03-17T00:47:38;9.90;1.00
2409;DHT22;8463;48.094;7.970;2024-03-17T00:50:05;9.90;1.00
2409;DHT22;8463;48.094;7.970;2024-03-17T00:52:32;9.80;1.00
2409;DHT22;8463;48.094;7.970;2024-03-17T00:55:00;9.80;1.00
2409;DHT22;8463;48.094;7.970;2024-03-17T00:57:26;9.70;1.00
2409;DHT22;8463;48.094;7.970;2024-03-17T00:59:51;9.60;1.00
2409;DHT22;8463;48.094;7.970;2024-03-17T01:02:18;9.60;1.00
2409;DHT22;8463;48.094;7.970;2024-03-17T01:04:44;9.70;1.00
2409;DHT22;8463;48.094;7.970;2024-03-17T01:07:11;9.70;1.00
2409;DHT22;8463;48.094;7.970;2024-03-17T01:09:37;9.70;1.00
2409;DHT22;8463;48.094;7.970;2024-03-17T01:12:03;9.70;1.00
2409;DHT22;8463;48.094;7.970;2024-03-17T01:14:29;9.60;1.00
2409;DHT22;8463;48.094;7.970;2024-03-17T01:16:56;9.50;1.00
2409;DHT22;8463;48.094;7.970;2024-03-17T01:19:22;9.50;1.00
2409;DHT22;8463;48.094;7.970;2024-03-17T01:21:48;9.50;1.00
2409;DHT22;8463;48.094;7.970;2024-03-17T01:24:14;9.60;1.00
2409;DHT22;8463;48.094;7.970;2024-03-17T01:26:39;9.60;1.00
2409;DHT22;8463;48.094;7.970;2024-03-17T01:29:05;9.60;1.00
2409;DHT22;8463;48.094;7.970;2024-03-17T01:31:31;9.60;1.00
2409;DHT22;8463;48.094;7.970;2024-03-17T01:33:56;9.60;1.00
2409;DHT22;8463;48.094;7.970;2024-03-17T01:36:22;9.60;1.00
2409;DHT22;8463;48.094;7.970;2024-03-17T01:38:48;9.60;1.00
2409;DHT22;8463;48.094;7.970;2024-03-17T01:41:14;9.60;1.00
2409;DHT22;8463;48.094;7.970;2024-03-17T01:43:40;9.60;1.00
2409;DHT22;8463;48.094;7.970;2024-03-17T01:46:06;9.60;1.00
2409;DHT22;8463;48.094;7.970;2024-03-17T01:48:33;9.60;1.00
2409;DHT22;8463;48.094;7.970;2024-03-17T01:50:59;9.70;1.00
2409;DHT22;8463;48.094;7.970;2024-03-17T01:53:25;9.60;1.00
2409;DHT22;8463;48.094;7.970;2024-03-17T01:55:52;9.60;1.00
2409;DHT22;8463;48.094;7.970;2024-03-17T01:58:20;9.60;1.00
2409;DHT22;8463;48.094;7.970;2024-03-17T02:00:50;9.60;1.00
2409;DHT22;8463;48.094;7.970;2024-03-17T02:03:16;9.60;1.00
2409;DHT22;8463;48.094;7.970;2024-03-17T02:05:42;9.60;1.00
2409;DHT22;8463;48.094;7.970;2024-03-17T02:08:07;9.60;1.00
2409;DHT22;8463;48.094;7.970;2024-03-17T02:10:34;9.60;1.00
2409;DHT22;8463;48.094;7.970;2024-03-17T02:13:01;9.60;1.00
2409;DHT22;8463;48.094;7.970;2024-03-17T02:15:26;9.50;1.00
2409;DHT22;8463;48.094;7.970;2024-03-17T02:17:53;9.60;1.00
2409;DHT22;8463;48.094;7.970;2024-03-17T02:20:18;9.60;1.00
2409;DHT22;8463;48.094;7.970;2024-03-17T02:22:44;9.50;1.00
2409;DHT22;8463;48.094;7.970;2024-03-17T02:25:10;9.50;1.00
2409;DHT22;8463;48.094;7.970;2024-03-17T02:27:36;9.50;1.00
2409;DHT22;8463;48.094;7.970;2024-03-17T02:30:03;9.60;1.00
2409;DHT22;8463;48.094;7.970;2024-03-17T02:32:33;9.50;1.00
2409;DHT22;8463;48.094;7.970;2024-03-17T02:34:59;9.40;1.00
2409;DHT22;8463;48.094;7.970;2024-03-17T02:37:25;9.40;1.00
2409;DHT22;8463;48.094;7.970;2024-03-17T02:39:51;9.40;1.00
2409;DHT22;8463;48.094;7.970;2024-03-17T02:42:16;9.40;1.00
2409;DHT22;8463;48.094;7.970;2024-03-17T02:44:42;9.40;1.00
2409;DHT22;8463;48.094;7.970;2024-03-17T02:47:08;9.50;1.00
2409;DHT22;8463;48.094;7.970;2024-03-17T02:49:40;9.50;1.00
2409;DHT22;8463;48.094;7.970;2024-03-17T02:52:09;9.60;1.00
2409;DHT22;8463;48.094;7.970;2024-03-17T02:54:38;9.60;1.00
2409;DHT22;8463;48.094;7.970;2024-03-17T02:57:06;9.60;1.00
2409;DHT22;8463;48.094;7.970;2024-03-17T02:59:34;9.60;1.00
2409;DHT22;8463;48.094;7.970;2024-03-17T03:02:00;9.70;1.00
2409;DHT22;8463;48.094;7.970;2024-03-17T03:04:27;9.70;1.00
2409;DHT22;8463;48.094;7.970;2024-03-17T03:06:52;9.60;1.00
2409;DHT22;8463;48.094;7.970;2024-03-17T03:09:18;9.70;1.00
2409;DHT22;8463;48.094;7.970;2024-03-17T03:12:00;9.70;1.00
2409;DHT22;8463;48.094;7.970;2024-03-17T03:14:28;9.70;1.00
2409;DHT22;8463;48.094;7.970;2024-03-17T03:16:56;9.70;1.00
2409;DHT22;8463;48.094;7.970;2024-03-17T03:19:21;9.70;1.00
2409;DHT22;8463;48.094;7.970;2024-03-17T03:21:47;9.70;1.00
2409;DHT22;8463;48.094;7.970;2024-03-17T03:24:14;9.70;1.00
2409;DHT22;8463;48.094;7.970;2024-03-17T03:26:40;9.70;1.00
2409;DHT22;8463;48.094;7.970;2024-03-17T03:29:05;9.70;1.00
2409;DHT22;8463;48.094;7.970;2024-03-17T03:31:32;9.70;1.00
2409;DHT22;8463;48.094;7.970;2024-03-17T03:33:58;9.60;1.00
2409;DHT22;8463;48.094;7.970;2024-03-17T03:36:27;9.50;1.00
2409;DHT22;8463;48.094;7.970;2024-03-17T03:38:52;9.50;1.00
2409;DHT22;8463;48.094;7.970;2024-03-17T03:41:19;9.50;1.00
2409;DHT22;8463;48.094;7.970;2024-03-17T03:43:45;9.60;1.00
2409;DHT22;8463;48.094;7.970;2024-03-17T03:46:14;9.60;1.00
2409;DHT22;8463;48.094;7.970;2024-03-17T03:48:40;9.60;1.00
2409;DHT22;8463;48.094;7.970;2024-03-17T03:51:06;9.60;1.00
2409;DHT22;8463;48.094;7.970;2024-03-17T03:53:33;9.60;1.00
2409;DHT22;8463;48.094;7.970;2024-03-17T03:55:58;9.50;1.00
2409;DHT22;8463;48.094;7.970;2024-03-17T03:58:28;9.50;1.00
2409;DHT22;8463;48.094;7.970;2024-03-17T04:00:54;9.50;1.00
2409;DHT22;8463;48.094;7.970;2024-03-17T04:03:21;9.50;1.00
2409;DHT22;8463;48.094;7.970;2024-03-17T04:05:47;9.50;1.00
2409;DHT22;8463;48.094;7.970;2024-03-17T04:08:13;9.50;1.00
2409;DHT22;8463;48.094;7.970;2024-03-17T04:10:38;9.50;1.00
2409;DHT22;8463;48.094;7.970;2024-03-17T04:13:04;9.50;1.00
2409;DHT22;8463;48.094;7.970;2024-03-17T04:15:30;9.40;1.00
2409;DHT22;8463;48.094;7.970;2024-03-17T04:17:55;9.40;1.00
2409;DHT22;8463;48.094;7.970;2024-03-17T04:20:21;9.40;1.00
2409;DHT22;8463;48.094;7.970;2024-03-17T04:22:46;9.40;1.00
2409;DHT22;8463;48.094;7.970;2024-03-17T04:25:14;9.40;1.00
2409;DHT22;8463;48.094;7.970;2024-03-17T04:27:40;9.30;1.00
2409;DHT22;8463;48.094;7.970;2024-03-17T04:30:06;9.20;1.00
2409;DHT22;8463;48.094;7.970;2024-03-17T04:32:33;9.20;1.00
2409;DHT22;8463;48.094;7.970;2024-03-17T04:34:59;9.30;1.00
2409;DHT22;8463;48.094;7.970;2024-03-17T04:37:25;9.30;1.00
2409;DHT22;8463;48.094;7.970;2024-03-17T04:39:51;9.30;1.00
2409;DHT22;8463;48.094;7.970;2024-03-17T04:42:17;9.30;1.00
2409;DHT22;8463;48.094;7.970;2024-03-17T04:44:45;9.30;1.00
2409;DHT22;8463;48.094;7.970;2024-03-17T04:47:11;9.30;1.00
2409;DHT22;8463;48.094;7.970;2024-03-17T04:49:38;9.30;1.00
2409;DHT22;8463;48.094;7.970;2024-03-17T04:52:04;9.30;1.00
2409;DHT22;8463;48.094;7.970;2024-03-17T04:54:34;9.30;1.00
2409;DHT22;8463;48.094;7.970;2024-03-17T04:57:00;9.30;1.00
2409;DHT22;8463;48.094;7.970;2024-03-17T04:59:27;9.40;1.00
2409;DHT22;8463;48.094;7.970;2024-03-17T05:01:53;9.40;1.00
2409;DHT22;8463;48.094;7.970;2024-03-17T05:04:18;9.40;1.00
2409;DHT22;8463;48.094;7.970;2024-03-17T05:06:44;9.40;1.00
2409;DHT22;8463;48.094;7.970;2024-03-17T05:09:16;9.50;1.00
2409;DHT22;8463;48.094;7.970;2024-03-17T05:11:44;9.50;1.00
2409;DHT22;8463;48.094;7.970;2024-03-17T05:14:11;9.40;1.00
2409;DHT22;8463;48.094;7.970;2024-03-17T05:16:36;9.40;1.00
2409;DHT22;8463;48.094;7.970;2024-03-17T05:19:02;9.30;1.00
2409;DHT22;8463;48.094;7.970;2024-03-17T05:21:29;9.40;1.00
2409;DHT22;8463;48.094;7.970;2024-03-17T05:24:00;9.20;1.00
2409;DHT22;8463;48.094;7.970;2024-03-17T05:26:26;9.10;1.00
2409;DHT22;8463;48.094;7.970;2024-03-17T05:28:52;9.20;1.00
2409;DHT22;8463;48.094;7.970;2024-03-17T05:31:19;9.20;1.00
2409;DHT22;8463;48.094;7.970;2024-03-17T05:33:47;9.20;1.00
2409;DHT22;8463;48.094;7.970;2024-03-17T05:36:12;9.20;1.00
2409;DHT22;8463;48.094;7.970;2024-03-17T05:38:38;9.30;1.00
2409;DHT22;8463;48.094;7.970;2024-03-17T05:41:05;9.20;1.00
2409;DHT22;8463;48.094;7.970;2024-03-17T05:43:33;9.20;1.00
2409;DHT22;8463;48.094;7.970;2024-03-17T05:46:02;9.20;1.00
2409;DHT22;8463;48.094;7.970;2024-03-17T05:48:28;9.20;1.00
2409;DHT22;8463;48.094;7.970;2024-03-17T05:50:54;9.30;1.00
2409;DHT22;8463;48.094;7.970;2024-03-17T05:53:21;9.40;1.00
2409;DHT22;8463;48.094;7.970;2024-03-17T05:55:46;9.30;1.00
2409;DHT22;8463;48.094;7.970;2024-03-17T05:58:12;9.20;1.00
2409;DHT22;8463;48.094;7.970;2024-03-17T06:00:39;9.10;1.00
2409;DHT22;8463;48.094;7.970;2024-03-17T06:03:05;9.10;1.00
2409;DHT22;8463;48.094;7.970;2024-03-17T06:05:32;9.00;1.00
2409;DHT22;8463;48.094;7.970;2024-03-17T06:08:00;9.00;1.00
2409;DHT22;8463;48.094;7.970;2024-03-17T06:10:30;9.10;1.00
2409;DHT22;8463;48.094;7.970;2024-03-17T06:12:57;9.20;1.00
2409;DHT22;8463;48.094;7.970;2024-03-17T06:15:23;9.20;1.00
2409;DHT22;8463;48.094;7.970;2024-03-17T06:17:50;9.20;1.00
2409;DHT22;8463;48.094;7.970;2024-03-17T06:20:18;9.10;1.00
2409;DHT22;8463;48.094;7.970;2024-03-17T06:22:44;9.00;1.00
2409;DHT22;8463;48.094;7.970;2024-03-17T06:25:11;9.00;1.00
2409;DHT22;8463;48.094;7.970;2024-03-17T06:27:37;8.90;1.00
2409;DHT22;8463;48.094;7.970;2024-03-17T06:30:05;8.90;1.00
2409;DHT22;8463;48.094;7.970;2024-03-17T06:32:32;8.80;1.00
2409;DHT22;8463;48.094;7.970;2024-03-17T06:35:01;8.90;1.00
2409;DHT22;8463;48.094;7.970;2024-03-17T06:37:27;8.80;1.00
2409;DHT22;8463;48.094;7.970;2024-03-17T06:39:52;8.90;1.00
2409;DHT22;8463;48.094;7.970;2024-03-17T06:42:19;8.90;1.00
2409;DHT22;8463;48.094;7.970;2024-03-17T06:44:44;9.00;1.00
2409;DHT22;8463;48.094;7.970;2024-03-17T06:47:10;9.10;1.00
2409;DHT22;8463;48.094;7.970;2024-03-17T06:49:36;9.10;1.00
2409;DHT22;8463;48.094;7.970;2024-03-17T06:52:02;9.10;1.00
2409;DHT22;8463;48.094;7.970;2024-03-17T06:54:28;9.10;1.00
2409;DHT22;8463;48.094;7.970;2024-03-17T06:56:53;9.20;1.00
2409;DHT22;8463;48.094;7.970;2024-03-17T06:59:19;9.10;1.00
2409;DHT22;8463;48.094;7.970;2024-03-17T07:01:48;9.20;1.00
2409;DHT22;8463;48.094;7.970;2024-03-17T07:04:14;9.20;1.00
2409;DHT22;8463;48.094;7.970;2024-03-17T07:06:39;9.20;1.00
2409;DHT22;8463;48.094;7.970;2024-03-17T07:09:05;9.20;1.00
2409;DHT22;8463;48.094;7.970;2024-03-17T07:11:31;9.20;1.00
2409;DHT22;8463;48.094;7.970;2024-03-17T07:13:59;9.20;1.00
2409;DHT22;8463;48.094;7.970;2024-03-17T07:16:25;9.20;1.00
2409;DHT22;8463;48.094;7.970;2024-03-17T07:18:51;9.30;1.00
2409;DHT22;8463;48.094;7.970;2024-03-17T07:21:18;9.40;1.00
2409;DHT22;8463;48.094;7.970;2024-03-17T07:23:44;9.60;1.00
2409;DHT22;8463;48.094;7.970;2024-03-17T07:26:10;10.10;1.00
2409;DHT22;8463;48.094;7.970;2024-03-17T07:28:36;10.60;1.00
2409;DHT22;8463;48.094;7.970;2024-03-17T07:31:07;10.70;1.00
2409;DHT22;8463;48.094;7.970;2024-03-17T07:33:34;10.60;1.00
2409;DHT22;8463;48.094;7.970;2024-03-17T07:35:59;10.60;1.00
2409;DHT22;8463;48.094;7.970;2024-03-17T07:38:29;10.50;1.00
2409;DHT22;8463;48.094;7.970;2024-03-17T07:40:56;10.50;1.00
2409;DHT22;8463;48.094;7.970;2024-03-17T07:43:23;10.50;1.00
2409;DHT22;8463;48.094;7.970;2024-03-17T07:46:05;10.30;1.00
2409;DHT22;8463;48.094;7.970;2024-03-17T07:48:32;10.30;1.00
2409;DHT22;8463;48.094;7.970;2024-03-17T07:53:26;10.20;1.00
2409;DHT22;8463;48.094;7.970;2024-03-17T07:55:59;10.10;1.00
2409;DHT22;8463;48.094;7.970;2024-03-17T07:58:26;10.20;1.00
2409;DHT22;8463;48.094;7.970;2024-03-17T08:00:53;10.10;1.00
2409;DHT22;8463;48.094;7.970;2024-03-17T08:03:21;10.20;1.00
2409;DHT22;8463;48.094;7.970;2024-03-17T08:05:51;10.30;1.00
2409;DHT22;8463;48.094;7.970;2024-03-17T08:08:18;10.30;1.00
2409;DHT22;8463;48.094;7.970;2024-03-17T08:10:44;10.40;1.00
2409;DHT22;8463;48.094;7.970;2024-03-17T08:13:10;10.50;1.00
2409;DHT22;8463;48.094;7.970;2024-03-17T08:15:36;10.50;1.00
2409;DHT22;8463;48.094;7.970;2024-03-17T08:18:02;10.60;1.00
2409;DHT22;8463;48.094;7.970;2024-03-17T08:20:29;10.70;1.00
2409;DHT22;8463;48.094;7.970;2024-03-17T08:22:57;10.80;1.00
2409;DHT22;8463;48.094;7.970;2024-03-17T08:25:23;10.80;1.00
2409;DHT22;8463;48.094;7.970;2024-03-17T08:27:48;10.80;1.00
2409;DHT22;8463;48.094;7.970;2024-03-17T08:30:14;10.80;1.00
2409;DHT22;8463;48.094;7.970;2024-03-17T08:32:40;10.90;1.00
2409;DHT22;8463;48.094;7.970;2024-03-17T08:35:06;10.90;1.00
2409;DHT22;8463;48.094;7.970;2024-03-17T08:37:32;11.00;1.00
2409;DHT22;8463;48.094;7.970;2024-03-17T08:40:01;11.10;1.00
2409;DHT22;8463;48.094;7.970;2024-03-17T08:42:27;11.10;1.00
2409;DHT22;8463;48.094;7.970;2024-03-17T08:44:52;11.30;1.00
2409;DHT22;8463;48.094;7.970;2024-03-17T08:47:18;11.30;1.00
2409;DHT22;8463;48.094;7.970;2024-03-17T08:49:44;11.40;1.00
2409;DHT22;8463;48.094;7.970;2024-03-17T08:52:10;11.40;1.00
2409;DHT22;8463;48.094;7.970;2024-03-17T08:54:35;11.30;1.00
2409;DHT22;8463;48.094;7.970;2024-03-17T08:57:01;11.30;1.00
2409;DHT22;8463;48.094;7.970;2024-03-17T08:59:27;11.40;1.00
2409;DHT22;8463;48.094;7.970;2024-03-17T09:01:56;11.40;1.00
2409;DHT22;8463;48.094;7.970;2024-03-17T09:04:22;11.40;1.00
2409;DHT22;8463;48.094;7.970;2024-03-17T09:06:47;11.60;1.00
2409;DHT22;8463;48.094;7.970;2024-03-17T09:09:13;11.60;1.00
2409;DHT22;8463;48.094;7.970;2024-03-17T09:11:39;11.80;1.00
2409;DHT22;8463;48.094;7.970;2024-03-17T09:14:05;11.80;1.00
2409;DHT22;8463;48.094;7.970;2024-03-17T09:16:31;11.80;1.00
2409;DHT22;8463;48.094;7.970;2024-03-17T09:18:57;11.80;1.00
2409;DHT22;8463;48.094;7.970;2024-03-17T09:21:23;11.70;1.00
2409;DHT22;8463;48.094;7.970;2024-03-17T09:23:49;11.50;1.00
2409;DHT22;8463;48.094;7.970;2024-03-17T09:26:15;11.60;1.00
2409;DHT22;8463;48.094;7.970;2024-03-17T09:28:43;11.60;1.00
2409;DHT22;8463;48.094;7.970;2024-03-17T09:31:10;11.70;1.00
2409;DHT22;8463;48.094;7.970;2024-03-17T09:33:36;11.70;1.00
2409;DHT22;8463;48.094;7.970;2024-03-17T09:36:07;11.70;1.00
2409;DHT22;8463;48.094;7.970;2024-03-17T09:38:35;11.70;1.00
2409;DHT22;8463;48.094;7.970;2024-03-17T09:41:01;11.70;1.00
2409;DHT22;8463;48.094;7.970;2024-03-17T09:43:32;11.70;1.00
2409;DHT22;8463;48.094;7.970;2024-03-17T09:45:58;11.60;1.00
2409;DHT22;8463;48.094;7.970;2024-03-17T09:48:26;11.70;1.00
2409;DHT22;8463;48.094;7.970;2024-03-17T09:50:58;11.60;1.00
2409;DHT22;8463;48.094;7.970;2024-03-17T09:53:35;11.50;1.00
2409;DHT22;8463;48.094;7.970;2024-03-17T09:56:19;11.50;1.00
2409;DHT22;8463;48.094;7.970;2024-03-17T09:58:46;11.40;1.00
2409;DHT22;8463;48.094;7.970;2024-03-17T10:01:12;11.40;1.00
2409;DHT22;8463;48.094;7.970;2024-03-17T10:03:52;11.40;1.00
2409;DHT22;8463;48.094;7.970;2024-03-17T10:06:21;11.30;1.00
2409;DHT22;8463;48.094;7.970;2024-03-17T10:08:49;11.40;1.00
2409;DHT22;8463;48.094;7.970;2024-03-17T10:11:20;11.40;1.00
2409;DHT22;8463;48.094;7.970;2024-03-17T10:13:47;11.50;1.00
2409;DHT22;8463;48.094;7.970;2024-03-17T10:16:25;11.40;1.00
2409;DHT22;8463;48.094;7.970;2024-03-17T10:21:49;11.40;1.00
2409;DHT22;8463;48.094;7.970;2024-03-17T10:24:22;11.30;1.00
2409;DHT22;8463;48.094;7.970;2024-03-17T10:26:49;11.30;1.00
2409;DHT22;8463;48.094;7.970;2024-03-17T10:32:19;11.40;1.00
2409;DHT22;8463;48.094;7.970;2024-03-17T10:34:44;11.40;1.00
2409;DHT22;8463;48.094;7.970;2024-03-17T10:37:17;11.40;1.00
2409;DHT22;8463;48.094;7.970;2024-03-17T10:39:51;11.40;1.00
2409;DHT22;8463;48.094;7.970;2024-03-17T10:42:25;11.40;1.00
2409;DHT22;8463;48.094;7.970;2024-03-17T10:44:51;11.40;1.00
2409;DHT22;8463;48.094;7.970;2024-03-17T10:47:27;11.50;1.00
2409;DHT22;8463;48.094;7.970;2024-03-17T10:49:54;11.50;1.00
2409;DHT22;8463;48.094;7.970;2024-03-17T10:52:21;11.50;1.00
2409;DHT22;8463;48.094;7.970;2024-03-17T10:54:49;11.50;1.00
2409;DHT22;8463;48.094;7.970;2024-03-17T11:00:04;11.50;1.00
2409;DHT22;8463;48.094;7.970;2024-03-17T11:02:31;11.50;1.00
2409;DHT22;8463;48.094;7.970;2024-03-17T11:07:50;11.50;1.00
2409;DHT22;8463;48.094;7.970;2024-03-17T11:10:21;11.50;1.00
2409;DHT22;8463;48.094;7.970;2024-03-17T11:12:58;11.50;1.00
2409;DHT22;8463;48.094;7.970;2024-03-17T11:17:53;11.70;1.00
2409;DHT22;8463;48.094;7.970;2024-03-17T11:20:24;11.70;1.00
2409;DHT22;8463;48.094;7.970;2024-03-17T11:22:51;11.70;1.00
2409;DHT22;8463;48.094;7.970;2024-03-17T11:28:13;11.70;1.00
2409;DHT22;8463;48.094;7.970;2024-03-17T11:30:48;11.70;1.00
2409;DHT22;8463;48.094;7.970;2024-03-17T11:39:06;11.80;1.00
2409;DHT22;8463;48.094;7.970;2024-03-17T11:41:41;11.90;1.00
2409;DHT22;8463;48.094;7.970;2024-03-17T11:47:03;12.00;1.00
2409;DHT22;8463;48.094;7.970;2024-03-17T11:49:41;12.00;1.00
2409;DHT22;8463;48.094;7.970;2024-03-17T11:52:11;12.00;1.00
2409;DHT22;8463;48.094;7.970;2024-03-17T11:54:42;12.00;1.00
2409;DHT22;8463;48.094;7.970;2024-03-17T11:57:10;12.10;1.00
2409;DHT22;8463;48.094;7.970;2024-03-17T11:59:36;12.10;1.00
2409;DHT22;8463;48.094;7.970;2024-03-17T12:02:29;12.00;1.00
2409;DHT22;8463;48.094;7.970;2024-03-17T12:04:58;11.90;1.00
2409;DHT22;8463;48.094;7.970;2024-03-17T12:07:24;11.90;1.00
2409;DHT22;8463;48.094;7.970;2024-03-17T12:09:53;11.90;1.00
2409;DHT22;8463;48.094;7.970;2024-03-17T12:12:27;11.90;1.00
2409;DHT22;8463;48.094;7.970;2024-03-17T12:15:03;12.00;1.00
2409;DHT22;8463;48.094;7.970;2024-03-17T12:17:31;12.00;1.00
2409;DHT22;8463;48.094;7.970;2024-03-17T12:19:57;12.00;1.00
2409;DHT22;8463;48.094;7.970;2024-03-17T12:22:24;12.00;1.00
2409;DHT22;8463;48.094;7.970;2024-03-17T12:24:53;12.00;1.00
2409;DHT22;8463;48.094;7.970;2024-03-17T12:27:23;12.10;1.00
2409;DHT22;8463;48.094;7.970;2024-03-17T12:29:50;12.00;1.00
2409;DHT22;8463;48.094;7.970;2024-03-17T12:32:24;12.10;1.00
2409;DHT22;8463;48.094;7.970;2024-03-17T12:34:51;12.10;1.00
2409;DHT22;8463;48.094;7.970;2024-03-17T12:37:24;12.10;1.00
2409;DHT22;8463;48.094;7.970;2024-03-17T12:39:52;12.10;1.00
2409;DHT22;8463;48.094;7.970;2024-03-17T12:42:23;12.20;1.00
2409;DHT22;8463;48.094;7.970;2024-03-17T12:44:51;12.20;1.00
2409;DHT22;8463;48.094;7.970;2024-03-17T12:47:18;12.00;1.00
2409;DHT22;8463;48.094;7.970;2024-03-17T12:49:48;12.00;1.00
2409;DHT22;8463;48.094;7.970;2024-03-17T12:52:22;12.00;1.00
2409;DHT22;8463;48.094;7.970;2024-03-17T12:55:07;12.00;1.00
2409;DHT22;8463;48.094;7.970;2024-03-17T13:00:45;11.90;1.00
2409;DHT22;8463;48.094;7.970;2024-03-17T13:03:27;11.90;1.00
2409;DHT22;8463;48.094;7.970;2024-03-17T13:05:53;11.90;1.00
2409;DHT22;8463;48.094;7.970;2024-03-17T13:08:18;11.80;1.00
2409;DHT22;8463;48.094;7.970;2024-03-17T13:10:44;11.80;1.00
2409;DHT22;8463;48.094;7.970;2024-03-17T13:13:12;11.80;1.00
2409;DHT22;8463;48.094;7.970;2024-03-17T13:15:41;11.70;1.00
2409;DHT22;8463;48.094;7.970;2024-03-17T13:18:07;11.60;1.00
2409;DHT22;8463;48.094;7.970;2024-03-17T13:20:33;11.70;1.00
2409;DHT22;8463;48.094;7.970;2024-03-17T13:23:00;11.70;1.00
2409;DHT22;8463;48.094;7.970;2024-03-17T13:25:28;11.80;1.00
2409;DHT22;8463;48.094;7.970;2024-03-17T13:28:02;11.90;1.00
2409;DHT22;8463;48.094;7.970;2024-03-17T13:30:29;12.10;1.00
2409;DHT22;8463;48.094;7.970;2024-03-17T13:32:55;12.10;1.00
2409;DHT22;8463;48.094;7.970;2024-03-17T13:35:28;12.20;1.00
2409;DHT22;8463;48.094;7.970;2024-03-17T13:37:55;12.10;1.00
2409;DHT22;8463;48.094;7.970;2024-03-17T13:40:22;12.20;1.00
2409;DHT22;8463;48.094;7.970;2024-03-17T13:42:52;12.30;1.00
2409;DHT22;8463;48.094;7.970;2024-03-17T13:45:20;12.40;1.00
2409;DHT22;8463;48.094;7.970;2024-03-17T13:47:59;12.50;1.00
2409;DHT22;8463;48.094;7.970;2024-03-17T13:50:25;12.60;1.00
2409;DHT22;8463;48.094;7.970;2024-03-17T13:52:51;12.70;1.00
2409;DHT22;8463;48.094;7.970;2024-03-17T13:55:22;12.70;1.00
2409;DHT22;8463;48.094;7.970;2024-03-17T13:57:56;12.80;1.00
2409;DHT22;8463;48.094;7.970;2024-03-17T14:00:28;12.80;1.00
2409;DHT22;8463;48.094;7.970;2024-03-17T14:02:55;12.90;1.00
2409;DHT22;8463;48.094;7.970;2024-03-17T14:05:27;13.10;1.00
2409;DHT22;8463;48.094;7.970;2024-03-17T14:07:53;13.30;1.00
2409;DHT22;8463;48.094;7.970;2024-03-17T14:10:20;13.40;1.00
2409;DHT22;8463;48.094;7.970;2024-03-17T14:12:46;13.60;1.00
2409;DHT22;8463;48.094;7.970;2024-03-17T14:15:14;13.70;1.00
2409;DHT22;8463;48.094;7.970;2024-03-17T14:17:41;13.80;1.00
2409;DHT22;8463;48.094;7.970;2024-03-17T14:20:08;13.70;1.00
2409;DHT22;8463;48.094;7.970;2024-03-17T14:22:37;13.80;1.00
2409;DHT22;8463;48.094;7.970;2024-03-17T14:25:10;13.80;1.00
2409;DHT22;8463;48.094;7.970;2024-03-17T14:27:38;13.80;1.00
2409;DHT22;8463;48.094;7.970;2024-03-17T14:30:04;13.70;1.00
2409;DHT22;8463;48.094;7.970;2024-03-17T14:32:31;13.60;1.00
2409;DHT22;8463;48.094;7.970;2024-03-17T14:34:57;13.60;1.00
2409;DHT22;8463;48.094;7.970;2024-03-17T14:37:23;13.50;1.00
2409;DHT22;8463;48.094;7.970;2024-03-17T14:39:51;13.40;1.00
2409;DHT22;8463;48.094;7.970;2024-03-17T14:42:16;13.40;1.00
2409;DHT22;8463;48.094;7.970;2024-03-17T14:44:42;13.40;1.00
2409;DHT22;8463;48.094;7.970;2024-03-17T14:47:08;13.40;1.00
2409;DHT22;8463;48.094;7.970;2024-03-17T14:49:35;13.40;1.00
2409;DHT22;8463;48.094;7.970;2024-03-17T14:54:27;13.30;1.00
2409;DHT22;8463;48.094;7.970;2024-03-17T14:56:53;13.30;1.00
2409;DHT22;8463;48.094;7.970;2024-03-17T14:59:21;13.40;1.00
2409;DHT22;8463;48.094;7.970;2024-03-17T15:01:47;13.30;1.00
2409;DHT22;8463;48.094;7.970;2024-03-17T15:04:15;13.40;1.00
2409;DHT22;8463;48.094;7.970;2024-03-17T15:06:43;13.30;1.00
2409;DHT22;8463;48.094;7.970;2024-03-17T15:09:12;13.30;1.00
2409;DHT22;8463;48.094;7.970;2024-03-17T15:11:38;13.20;1.00
2409;DHT22;8463;48.094;7.970;2024-03-17T15:14:04;13.20;1.00
2409;DHT22;8463;48.094;7.970;2024-03-17T15:16:36;13.20;1.00
2409;DHT22;8463;48.094;7.970;2024-03-17T15:19:02;13.20;1.00
2409;DHT22;8463;48.094;7.970;2024-03-17T15:21:31;13.20;1.00
2409;DHT22;8463;48.094;7.970;2024-03-17T15:23:57;13.10;1.00
2409;DHT22;8463;48.094;7.970;2024-03-17T15:26:22;13.00;1.00
2409;DHT22;8463;48.094;7.970;2024-03-17T15:28:48;13.00;1.00
2409;DHT22;8463;48.094;7.970;2024-03-17T15:31:14;13.00;1.00
2409;DHT22;8463;48.094;7.970;2024-03-17T15:33:40;12.90;1.00
2409;DHT22;8463;48.094;7.970;2024-03-17T15:36:10;12.90;1.00
2409;DHT22;8463;48.094;7.970;2024-03-17T15:38:37;12.90;1.00
2409;DHT22;8463;48.094;7.970;2024-03-17T15:41:09;12.80;1.00
2409;DHT22;8463;48.094;7.970;2024-03-17T15:43:39;12.70;1.00
2409;DHT22;8463;48.094;7.970;2024-03-17T15:46:19;12.70;1.00
2409;DHT22;8463;48.094;7.970;2024-03-17T15:48:48;12.60;1.00
2409;DHT22;8463;48.094;7.970;2024-03-17T15:51:14;12.60;1.00
2409;DHT22;8463;48.094;7.970;2024-03-17T15:53:43;12.60;1.00
2409;DHT22;8463;48.094;7.970;2024-03-17T15:56:09;12.60;1.00
2409;DHT22;8463;48.094;7.970;2024-03-17T15:58:36;12.60;1.00
2409;DHT22;8463;48.094;7.970;2024-03-17T16:01:06;12.60;1.00
2409;DHT22;8463;48.094;7.970;2024-03-17T16:03:34;12.60;1.00
2409;DHT22;8463;48.094;7.970;2024-03-17T16:06:10;12.60;1.00
2409;DHT22;8463;48.094;7.970;2024-03-17T16:08:47;12.60;1.00
2409;DHT22;8463;48.094;7.970;2024-03-17T16:11:16;12.60;1.00
2409;DHT22;8463;48.094;7.970;2024-03-17T16:13:44;12.60;1.00
2409;DHT22;8463;48.094;7.970;2024-03-17T16:16:15;12.60;1.00
2409;DHT22;8463;48.094;7.970;2024-03-17T16:18:41;12.60;1.00
2409;DHT22;8463;48.094;7.970;2024-03-17T16:21:15;12.70;1.00
2409;DHT22;8463;48.094;7.970;2024-03-17T16:23:51;12.70;1.00
2409;DHT22;8463;48.094;7.970;2024-03-17T16:26:19;12.70;1.00
2409;DHT22;8463;48.094;7.970;2024-03-17T16:28:44;12.70;1.00
2409;DHT22;8463;48.094;7.970;2024-03-17T16:31:10;12.70;1.00
2409;DHT22;8463;48.094;7.970;2024-03-17T16:33:36;12.60;1.00
2409;DHT22;8463;48.094;7.970;2024-03-17T16:36:03;12.50;1.00
2409;DHT22;8463;48.094;7.970;2024-03-17T16:38:30;12.60;1.00
2409;DHT22;8463;48.094;7.970;2024-03-17T16:40:57;12.50;1.00
2409;DHT22;8463;48.094;7.970;2024-03-17T16:48:52;12.40;1.00
2409;DHT22;8463;48.094;7.970;2024-03-17T16:51:21;12.40;1.00
2409;DHT22;8463;48.094;7.970;2024-03-17T16:53:47;12.40;1.00
2409;DHT22;8463;48.094;7.970;2024-03-17T16:56:15;12.40;1.00
2409;DHT22;8463;48.094;7.970;2024-03-17T16:58:41;12.30;1.00
2409;DHT22;8463;48.094;7.970;2024-03-17T17:01:11;12.30;1.00
2409;DHT22;8463;48.094;7.970;2024-03-17T17:03:38;12.40;1.00
2409;DHT22;8463;48.094;7.970;2024-03-17T17:06:04;12.30;1.00